Terminal Aerodrome Forecast
Issued by NWS Twin Cities, MN

Home | Current Version | Previous Version | Text Only | Print | Product List | Glossary Off
Versions: 1 2 3 4 5 6 7 8 9 10 11 12 13 14 15 16 17 18 19 20 21 22

761
FTUS43 KMPX 201139
TAFEAU
TAF
KEAU 201139Z 2012/2112 23004KT P6SM BKN150
      TEMPO 2012/2013 1SM BR SCT001
     FM201600 27008KT P6SM SCT050 OVC150
     FM210000 25004KT P6SM SCT200=

USA.gov is the U.S. government's official web portal to all federal, state and local government web resources and services.